Map

Track Data

SID SEASON NUMBER BASIN SUBBASIN NAME ISO_TIME NATURE LAT LON WMO_WIND WMO_PRES WMO_AGENCY TRACK_TYPE DIST2LAND LANDFALL IFLAG USA_AGENCY USA_ATCF_ID USA_LAT USA_LON USA_RECORD USA_STATUS USA_WIND USA_PRES USA_SSHS USA_R34_NE USA_R34_SE USA_R34_SW USA_R34_NW USA_R50_NE USA_R50_SE USA_R50_SW USA_R50_NW USA_R64_NE USA_R64_SE USA_R64_SW USA_R64_NW USA_POCI USA_ROCI USA_RMW USA_EYE TOKYO_LAT TOKYO_LON TOKYO_GRADE TOKYO_WIND TOKYO_PRES TOKYO_R50_DIR TOKYO_R50_LONG TOKYO_R50_SHORT TOKYO_R30_DIR TOKYO_R30_LONG TOKYO_R30_SHORT TOKYO_LAND CMA_LAT CMA_LON CMA_CAT CMA_WIND CMA_PRES HKO_LAT HKO_LON HKO_CAT HKO_WIND HKO_PRES NEWDELHI_LAT NEWDELHI_LON NEWDELHI_GRADE NEWDELHI_WIND NEWDELHI_PRES NEWDELHI_CI NEWDELHI_DP NEWDELHI_POCI REUNION_LAT REUNION_LON REUNION_TYPE REUNION_WIND REUNION_PRES REUNION_TNUM REUNION_CI REUNION_RMW REUNION_R34_NE REUNION_R34_SE REUNION_R34_SW REUNION_R34_NW REUNION_R50_NE REUNION_R50_SE REUNION_R50_SW REUNION_R50_NW REUNION_R64_NE REUNION_R64_SE REUNION_R64_SW REUNION_R64_NW BOM_LAT BOM_LON BOM_TYPE BOM_WIND BOM_PRES BOM_TNUM BOM_CI BOM_RMW BOM_R34_NE BOM_R34_SE BOM_R34_SW BOM_R34_NW BOM_R50_NE BOM_R50_SE BOM_R50_SW BOM_R50_NW BOM_R64_NE BOM_R64_SE BOM_R64_SW BOM_R64_NW BOM_ROCI BOM_POCI BOM_EYE BOM_POS_METHOD BOM_PRES_METHOD NADI_LAT NADI_LON NADI_CAT NADI_WIND NADI_PRES WELLINGTON_LAT WELLINGTON_LON WELLINGTON_WIND WELLINGTON_PRES DS824_LAT DS824_LON DS824_STAGE DS824_WIND DS824_PRES TD9636_LAT TD9636_LON TD9636_STAGE TD9636_WIND TD9636_PRES TD9635_LAT TD9635_LON TD9635_WIND TD9635_PRES TD9635_ROCI NEUMANN_LAT NEUMANN_LON NEUMANN_CLASS NEUMANN_WIND NEUMANN_PRES MLC_LAT MLC_LON MLC_CLASS MLC_WIND MLC_PRES USA_GUST BOM_GUST BOM_GUST_PER REUNION_GUST REUNION_GUST_PER USA_SEAHGT USA_SEARAD_NE USA_SEARAD_SE USA_SEARAD_SW USA_SEARAD_NW STORM_SPEED STORM_DIR
1882288N29318 1882 37 NA NA NOT_NAMED 1882-10-14 12:00:00 TS 29.0000 -42.5000 main 2167 2129 _____________O -1 29.0000 -42.5000 TS 45 16 41
1882288N29318 1882 37 NA NA NOT_NAMED 1882-10-14 15:00:00 TS 29.6106 -41.8916 main 2129 2093 _____________P -1 29.6106 -41.8916 TS 45 16 41
1882288N29318 1882 37 NA NA NOT_NAMED 1882-10-14 18:00:00 TS 30.2000 -41.3000 main 2093 2064 _____________O -1 30.2000 -41.3000 TS 45 15 41
1882288N29318 1882 37 NA NA NOT_NAMED 1882-10-14 21:00:00 TS 30.7572 -40.7416 main 2059 2033 _____________P -1 30.7572 -40.7416 TS 45 15 41
1882288N29318 1882 37 NA NA NOT_NAMED 1882-10-15 00:00:00 TS 31.3000 -40.2000 main 2033 2008 _____________O -1 31.3000 -40.2000 TS 45 14 41
1882288N29318 1882 37 NA NA NOT_NAMED 1882-10-15 03:00:00 TS 31.8498 -39.6493 main 2013 1981 _____________P -1 31.8498 -39.6493 TS 45 14 40
1882288N29318 1882 37 NA NA NOT_NAMED 1882-10-15 06:00:00 TS 32.4000 -39.1000 main 1981 1961 _____________O -1 32.4000 -39.1000 TS 45 14 40
1882288N29318 1882 37 NA NA NOT_NAMED 1882-10-15 09:00:00 TS 32.9347 -38.5564 main 1961 1939 _____________P -1 32.9347 -38.5564 TS 50 14 40
1882288N29318 1882 37 NA NA NOT_NAMED 1882-10-15 12:00:00 TS 33.5000 -38.0000 main 1939 1914 _____________O -1 33.5000 -38.0000 TS 55 15 39
1882288N29318 1882 37 NA NA NOT_NAMED 1882-10-15 15:00:00 TS 34.1424 -37.3999 main 1920 1896 _____________P -1 34.1424 -37.3999 TS 55 16 37
1882288N29318 1882 37 NA NA NOT_NAMED 1882-10-15 18:00:00 TS 34.8000 -36.8000 main 1896 1877 _____________O -1 34.8000 -36.8000 TS 55 16 37
1882288N29318 1882 37 NA NA NOT_NAMED 1882-10-15 21:00:00 TS 35.3996 -36.2412 main 1883 1866 _____________P -1 35.3996 -36.2412 TS 55 15 37
1882288N29318 1882 37 NA NA NOT_NAMED 1882-10-16 00:00:00 TS 36.0000 -35.7000 main 1866 1851 _____________O -1 36.0000 -35.7000 TS 55 15 35
1882288N29318 1882 37 NA NA NOT_NAMED 1882-10-16 03:00:00 TS 36.6497 -35.1494 main 1858 1838 _____________P -1 36.6497 -35.1494 TS 50 16 34
1882288N29318 1882 37 NA NA NOT_NAMED 1882-10-16 06:00:00 TS 37.3000 -34.6000 main 1838 1836 _____________O -1 37.3000 -34.6000 TS 45 15 36
1882288N29318 1882 37 NA NA NOT_NAMED 1882-10-16 09:00:00 TS 37.8246 -34.0614 main 1836 1829 _____________P -1 37.8246 -34.0614 TS 45 15 36
1882288N29318 1882 37 NA NA NOT_NAMED 1882-10-16 12:00:00 TS 38.5000 -33.5000 main 1830 1808 _____________O -1 38.5000 -33.5000 TS 45 20 28
1882288N29318 1882 37 NA NA NOT_NAMED 1882-10-16 15:00:00 TS 39.5751 -32.8586 main 1801 1775 _____________P -1 39.5751 -32.8586 TS 45 25 24
1882288N29318 1882 37 NA NA NOT_NAMED 1882-10-16 18:00:00 TS 40.8000 -32.2000 main 1777 1757 _____________O -1 40.8000 -32.2000 TS 45 25 22
1882288N29318 1882 37 NA NA NOT_NAMED 1882-10-16 21:00:00 TS 41.8994 -31.5967 main 1759 1747 _____________P -1 41.8994 -31.5967 TS 45 24 22
1882288N29318 1882 37 NA NA NOT_NAMED 1882-10-17 00:00:00 TS 43.0000 -31.0000 main 1750 1693 _____________O -1 43.0000 -31.0000 TS 45 24 22
1882288N29318 1882 37 NA NA NOT_NAMED 1882-10-17 03:00:00 TS 44.1499 -30.3488 main 1685 1587 _____________P -1 44.1499 -30.3488 TS 42 25 22
1882288N29318 1882 37 NA NA NOT_NAMED 1882-10-17 06:00:00 TS 45.3000 -29.7000 main 1580 1476 _____________O -1 45.3000 -29.7000 TS 40 24 21
1882288N29318 1882 37 NA NA NOT_NAMED 1882-10-17 09:00:00 TS 46.4129 -29.0914 main 1476 1382 _____________P -1 46.4129 -29.0914 TS 37 23 21
1882288N29318 1882 37 NA NA NOT_NAMED 1882-10-17 12:00:00 ET 47.5000 -28.5000 main 1377 _____________O -1 47.5000 -28.5000 EX 35 23 20

About IBTrACS Database

This database is a web-friendly format of International Best Track Archive for Climate Stewardship (IBTrACS), a global best track data archive curated by NOAA dating back to 1842.

Updated: 2021-12-03